createdAt,value
2023-01-12T00:01:14.465Z,8.23
2023-01-12T00:03:47.052Z,8.27
2023-01-12T00:06:20.680Z,8.15
2023-01-12T00:08:53.464Z,7.74
2023-01-12T00:11:26.326Z,7.65
2023-01-12T00:13:58.995Z,7.74
2023-01-12T00:16:31.618Z,7.55
2023-01-12T00:19:18.700Z,7.85
2023-01-12T00:21:57.133Z,7.66
2023-01-12T00:24:38.889Z,7.40
2023-01-12T00:27:17.306Z,7.50
2023-01-12T00:29:50.197Z,7.52
2023-01-12T00:32:22.740Z,7.73
2023-01-12T00:34:55.322Z,7.79
2023-01-12T00:37:27.834Z,7.39
2023-01-12T00:40:02.914Z,7.76
2023-01-12T00:42:35.747Z,7.88
2023-01-12T00:45:09.635Z,7.53
2023-01-12T00:47:43.098Z,7.56
2023-01-12T00:50:17.393Z,7.81
2023-01-12T00:52:51.722Z,7.49
2023-01-12T00:55:24.297Z,8.13
2023-01-12T00:57:57.095Z,8.05
2023-01-12T01:00:29.679Z,7.84
2023-01-12T01:03:02.321Z,8.19
2023-01-12T01:05:34.950Z,7.95
2023-01-12T01:08:07.568Z,8.19
2023-01-12T01:10:40.076Z,8.06
2023-01-12T01:13:12.724Z,8.23
2023-01-12T01:15:45.377Z,8.33
2023-01-12T01:18:17.916Z,7.60
2023-01-12T01:20:50.417Z,7.55
2023-01-12T01:23:25.225Z,7.77
2023-01-12T01:26:02.569Z,7.95
2023-01-12T01:28:36.013Z,8.31
2023-01-12T01:31:13.465Z,8.62
2023-01-12T01:33:47.556Z,8.70
2023-01-12T01:36:20.907Z,8.81
2023-01-12T01:38:53.550Z,8.41
2023-01-12T01:41:31.634Z,8.44
2023-01-12T01:44:25.095Z,8.55
2023-01-12T01:47:08.127Z,8.03
2023-01-12T01:49:49.041Z,8.19
2023-01-12T01:52:28.771Z,8.28
2023-01-12T01:55:06.715Z,7.99
2023-01-12T01:57:50.209Z,7.58
2023-01-12T02:00:24.869Z,7.81
2023-01-12T02:03:01.573Z,7.71
2023-01-12T02:05:37.170Z,7.75
2023-01-12T02:08:35.048Z,7.90
2023-01-12T02:11:08.255Z,8.01
2023-01-12T02:13:40.881Z,8.11
2023-01-12T02:16:20.329Z,7.76
2023-01-12T02:19:14.400Z,7.93
2023-01-12T02:22:11.662Z,8.11
2023-01-12T02:24:47.065Z,8.03
2023-01-12T02:27:30.472Z,7.78
2023-01-12T02:30:24.897Z,7.25
2023-01-12T02:33:07.522Z,7.09
2023-01-12T02:35:42.588Z,7.21
2023-01-12T02:38:36.011Z,7.32
2023-01-12T02:41:26.691Z,7.48
2023-01-12T02:43:59.918Z,7.89
2023-01-12T02:46:33.726Z,8.01
2023-01-12T02:49:18.448Z,7.95
2023-01-12T02:51:58.035Z,7.72
2023-01-12T02:54:34.279Z,7.60
2023-01-12T02:57:10.470Z,8.07
2023-01-12T02:59:45.145Z,7.96
2023-01-12T03:02:24.710Z,8.08
2023-01-12T03:04:57.321Z,8.38
2023-01-12T03:07:45.175Z,8.13
2023-01-12T03:10:42.359Z,8.29
2023-01-12T03:13:16.582Z,8.09
2023-01-12T03:15:54.047Z,7.64
2023-01-12T03:18:29.239Z,7.54
2023-01-12T03:21:18.026Z,7.51
2023-01-12T03:23:58.878Z,7.74
2023-01-12T03:26:36.313Z,7.80
2023-01-12T03:29:29.261Z,7.69
2023-01-12T03:32:02.942Z,7.53
2023-01-12T03:34:37.630Z,7.96
2023-01-12T03:37:44.450Z,7.61
2023-01-12T03:40:44.352Z,7.55
2023-01-12T03:43:38.653Z,7.64
2023-01-12T03:46:32.797Z,7.49
2023-01-12T03:49:26.898Z,7.62
2023-01-12T03:52:03.551Z,7.88
2023-01-12T03:54:40.564Z,8.08
2023-01-12T03:57:14.722Z,8.23
2023-01-12T03:59:47.386Z,7.71
2023-01-12T04:02:20.046Z,7.62
2023-01-12T04:04:52.688Z,7.72
2023-01-12T04:07:25.302Z,7.63
2023-01-12T04:09:57.922Z,8.11
2023-01-12T04:12:30.502Z,7.85
2023-01-12T04:15:03.323Z,7.97
2023-01-12T04:17:35.936Z,7.85
2023-01-12T04:20:09.355Z,7.76
2023-01-12T04:22:41.969Z,7.63
2023-01-12T04:25:18.366Z,7.85
2023-01-12T04:27:56.014Z,7.70
2023-01-12T04:30:31.216Z,7.74
2023-01-12T04:33:08.167Z,8.02
2023-01-12T04:35:40.847Z,7.48
2023-01-12T04:38:13.410Z,7.78
2023-01-12T04:40:46.026Z,7.25
2023-01-12T04:43:18.682Z,7.26
2023-01-12T04:45:51.375Z,7.24
2023-01-12T04:48:25.237Z,7.34
2023-01-12T04:51:00.469Z,7.61
2023-01-12T04:53:33.180Z,7.87
2023-01-12T04:56:07.150Z,8.15
2023-01-12T04:58:39.853Z,7.89
2023-01-12T05:01:18.488Z,7.81
2023-01-12T05:03:51.215Z,7.48
2023-01-12T05:06:24.348Z,7.32
2023-01-12T05:08:57.015Z,7.14
2023-01-12T05:11:30.203Z,7.19
2023-01-12T05:14:02.840Z,7.38
2023-01-12T05:16:35.500Z,7.51
2023-01-12T05:19:09.130Z,7.85
2023-01-12T05:21:41.672Z,7.77
2023-01-12T05:24:14.273Z,7.78
2023-01-12T05:26:46.923Z,7.98
2023-01-12T05:29:19.490Z,7.48
2023-01-12T05:31:52.343Z,7.62
2023-01-12T05:34:24.940Z,7.30
2023-01-12T05:36:57.591Z,7.61
2023-01-12T05:39:30.204Z,8.10
2023-01-12T05:42:02.803Z,8.11
2023-01-12T05:44:35.439Z,8.24
2023-01-12T05:47:08.036Z,8.70
2023-01-12T05:49:40.624Z,8.47
2023-01-12T05:52:13.221Z,7.58
2023-01-12T05:54:45.823Z,7.63
2023-01-12T05:57:18.506Z,7.72
2023-01-12T05:59:51.125Z,7.90
2023-01-12T06:02:23.831Z,7.80
2023-01-12T06:04:56.533Z,8.26
2023-01-12T06:07:29.183Z,7.74
2023-01-12T06:10:01.856Z,7.99
2023-01-12T06:12:34.436Z,7.86
2023-01-12T06:15:07.526Z,7.75
2023-01-12T06:17:40.202Z,7.22
2023-01-12T06:20:13.588Z,7.58
2023-01-12T06:22:46.216Z,7.18
2023-01-12T06:25:19.094Z,7.15
2023-01-12T06:27:51.703Z,7.50
2023-01-12T06:30:24.777Z,7.37
2023-01-12T06:33:01.876Z,7.34
2023-01-12T06:35:34.513Z,7.04
2023-01-12T06:38:07.123Z,7.03
2023-01-12T06:40:39.675Z,6.75
2023-01-12T06:43:12.301Z,6.92
2023-01-12T06:45:45.691Z,7.52
2023-01-12T06:48:18.555Z,7.27
2023-01-12T06:50:52.801Z,7.32
2023-01-12T06:53:25.415Z,7.79
2023-01-12T06:55:58.000Z,7.46
2023-01-12T06:58:30.693Z,7.26
2023-01-12T07:01:04.621Z,7.26
2023-01-12T07:03:37.268Z,7.26
2023-01-12T07:06:09.868Z,7.45
2023-01-12T07:08:42.526Z,7.30
2023-01-12T07:11:15.190Z,6.96
2023-01-12T07:13:47.796Z,6.77
2023-01-12T07:16:20.458Z,6.83
2023-01-12T07:18:53.103Z,7.26
2023-01-12T07:21:25.688Z,6.93
2023-01-12T07:23:58.251Z,6.80
2023-01-12T07:26:30.832Z,6.70
2023-01-12T07:29:03.941Z,6.81
2023-01-12T07:31:36.745Z,6.53
2023-01-12T07:34:09.366Z,6.52
2023-01-12T07:36:42.088Z,6.75
2023-01-12T07:39:14.685Z,7.46
2023-01-12T07:41:47.317Z,7.03
2023-01-12T07:44:20.080Z,7.36
2023-01-12T07:46:52.692Z,7.40
2023-01-12T07:49:26.302Z,7.69
2023-01-12T07:51:59.091Z,7.49
2023-01-12T07:54:31.709Z,7.15
2023-01-12T07:57:07.012Z,7.08
2023-01-12T07:59:39.704Z,7.44
2023-01-12T08:02:14.176Z,7.59
2023-01-12T08:04:47.415Z,8.03
2023-01-12T08:07:20.145Z,8.72
2023-01-12T08:09:52.871Z,10.05
2023-01-12T08:12:25.693Z,11.54
2023-01-12T08:14:58.375Z,10.84
2023-01-12T08:17:40.326Z,9.69
2023-01-12T08:20:26.717Z,9.65
2023-01-12T08:23:08.037Z,10.37
2023-01-12T08:25:46.088Z,8.70
2023-01-12T08:28:34.147Z,9.53
2023-01-12T08:31:07.948Z,9.90
2023-01-12T08:33:44.588Z,10.45
2023-01-12T08:36:18.033Z,10.51
2023-01-12T08:38:50.819Z,11.19
2023-01-12T08:41:24.456Z,11.54
2023-01-12T08:43:57.220Z,10.26
2023-01-12T08:46:29.757Z,10.99
2023-01-12T08:49:07.340Z,10.88
2023-01-12T08:51:41.967Z,9.91
2023-01-12T08:54:17.228Z,9.47
2023-01-12T08:56:50.511Z,10.49
2023-01-12T08:59:26.179Z,11.39
2023-01-12T09:01:59.024Z,13.23
2023-01-12T09:04:31.979Z,13.49
2023-01-12T09:07:04.684Z,12.42
2023-01-12T09:09:37.979Z,12.66
2023-01-12T09:12:10.604Z,11.98
2023-01-12T09:14:43.220Z,10.79
2023-01-12T09:17:15.829Z,12.45
2023-01-12T09:19:48.668Z,12.47
2023-01-12T09:22:21.289Z,12.57
2023-01-12T09:24:53.872Z,10.84
2023-01-12T09:27:26.482Z,9.99
2023-01-12T09:29:59.141Z,9.48
2023-01-12T09:32:36.902Z,9.12
2023-01-12T09:35:09.908Z,9.11
2023-01-12T09:37:42.501Z,9.52
2023-01-12T09:40:16.170Z,9.26
2023-01-12T09:42:52.665Z,9.28
2023-01-12T09:45:25.474Z,9.06
2023-01-12T09:47:59.435Z,8.87
2023-01-12T09:50:38.460Z,8.72
2023-01-12T09:53:17.207Z,8.92
2023-01-12T09:56:13.542Z,8.70
2023-01-12T09:59:02.797Z,8.94
2023-01-12T10:01:37.397Z,9.20
2023-01-12T10:04:10.203Z,9.24
2023-01-12T10:06:42.843Z,9.23
2023-01-12T10:09:19.875Z,9.21
2023-01-12T10:12:03.292Z,9.21
2023-01-12T10:14:49.707Z,8.63
2023-01-12T10:17:25.097Z,9.20
2023-01-12T10:20:02.320Z,9.22
2023-01-12T10:22:44.253Z,9.30
2023-01-12T10:25:29.550Z,9.38
2023-01-12T10:28:21.530Z,10.25
2023-01-12T10:30:56.342Z,10.55
2023-01-12T10:33:34.250Z,10.50
2023-01-12T10:36:17.693Z,10.12
2023-01-12T10:39:02.542Z,9.77
2023-01-12T10:41:36.523Z,9.75
2023-01-12T10:44:17.323Z,9.64
2023-01-12T10:47:09.590Z,9.48
2023-01-12T10:49:42.214Z,9.24
2023-01-12T10:52:37.775Z,8.94
2023-01-12T10:55:19.637Z,8.95
2023-01-12T10:57:52.837Z,8.91
2023-01-12T11:00:28.268Z,9.16
2023-01-12T11:03:00.951Z,8.81
2023-01-12T11:05:36.642Z,8.64
2023-01-12T11:08:38.464Z,8.73
2023-01-12T11:11:37.127Z,8.69
2023-01-12T11:14:25.563Z,9.18
2023-01-12T11:17:24.679Z,9.54
2023-01-12T11:20:01.529Z,9.58
2023-01-12T11:22:37.558Z,9.82
2023-01-12T11:25:22.467Z,9.59
2023-01-12T11:28:10.428Z,9.51
2023-01-12T11:31:24.494Z,10.32
2023-01-12T11:34:24.569Z,10.40
2023-01-12T11:37:11.006Z,10.07
2023-01-12T11:39:49.837Z,9.89
2023-01-12T11:42:28.109Z,10.07
2023-01-12T11:45:12.511Z,10.43
2023-01-12T11:48:07.215Z,10.15
2023-01-12T11:50:40.712Z,9.67
2023-01-12T11:53:22.306Z,9.76
2023-01-12T11:56:43.433Z,9.73
2023-01-12T11:59:29.837Z,9.63
2023-01-12T12:02:27.169Z,9.42
2023-01-12T12:05:18.137Z,9.29
2023-01-12T12:08:15.958Z,9.41
2023-01-12T12:11:03.540Z,8.97
2023-01-12T12:13:59.794Z,8.94
2023-01-12T12:17:14.341Z,9.55
2023-01-12T12:20:28.094Z,9.86
2023-01-12T12:23:18.678Z,10.04
2023-01-12T12:26:00.485Z,10.26
2023-01-12T12:28:33.294Z,9.97
2023-01-12T12:31:27.579Z,10.08
2023-01-12T12:34:11.840Z,9.65
2023-01-12T12:36:59.556Z,9.46
2023-01-12T12:39:55.981Z,9.42
2023-01-12T12:42:51.724Z,9.10
2023-01-12T12:45:51.721Z,9.51
2023-01-12T12:48:58.639Z,9.49
2023-01-12T12:51:34.608Z,9.71
2023-01-12T12:54:16.534Z,9.83
2023-01-12T12:56:50.508Z,9.57
2023-01-12T12:59:31.978Z,9.36
2023-01-12T13:02:04.798Z,9.39
2023-01-12T13:04:43.612Z,9.58
2023-01-12T13:07:21.236Z,9.28
2023-01-12T13:10:15.523Z,8.95
2023-01-12T13:13:01.264Z,9.15
2023-01-12T13:15:34.740Z,9.18
2023-01-12T13:19:02.522Z,9.30
2023-01-12T13:21:56.257Z,9.25
2023-01-12T13:24:40.431Z,9.45
2023-01-12T13:27:58.294Z,9.31
2023-01-12T13:30:30.900Z,9.19
2023-01-12T13:33:15.340Z,9.43
2023-01-12T13:35:47.978Z,9.33
2023-01-12T13:38:36.573Z,9.35
2023-01-12T13:41:15.059Z,9.27
2023-01-12T13:43:47.671Z,9.60
2023-01-12T13:46:46.547Z,10.09
2023-01-12T13:49:27.223Z,9.63
2023-01-12T13:52:20.528Z,9.49
2023-01-12T13:54:53.288Z,9.06
2023-01-12T13:57:30.109Z,9.05
2023-01-12T14:00:07.334Z,9.28
2023-01-12T14:02:45.260Z,9.17
2023-01-12T14:05:42.745Z,9.14
2023-01-12T14:08:50.713Z,9.30
2023-01-12T14:12:04.042Z,9.11
2023-01-12T14:15:18.246Z,9.26
2023-01-12T14:17:51.138Z,9.30
2023-01-12T14:20:27.061Z,9.57
2023-01-12T14:23:17.661Z,9.33
2023-01-12T14:26:07.390Z,9.12
2023-01-12T14:28:42.137Z,9.02
2023-01-12T14:31:39.124Z,9.11
2023-01-12T14:34:29.853Z,8.95
2023-01-12T14:37:06.488Z,9.53
2023-01-12T14:39:39.119Z,9.52
2023-01-12T14:42:20.037Z,9.64
2023-01-12T14:44:57.533Z,9.86
2023-01-12T14:47:34.629Z,9.92
2023-01-12T14:50:16.018Z,9.88
2023-01-12T14:52:49.049Z,9.92
2023-01-12T14:55:24.430Z,9.63
2023-01-12T14:58:01.776Z,9.55
2023-01-12T15:00:36.594Z,9.36
2023-01-12T15:03:26.336Z,9.82
2023-01-12T15:06:01.638Z,9.81
2023-01-12T15:08:34.323Z,9.59
2023-01-12T15:11:09.405Z,9.89
2023-01-12T15:13:42.061Z,10.06
2023-01-12T15:16:14.710Z,9.88
2023-01-12T15:18:47.557Z,10.02
2023-01-12T15:21:20.568Z,9.89
2023-01-12T15:23:53.213Z,9.89
2023-01-12T15:26:25.875Z,9.74
2023-01-12T15:28:58.494Z,9.68
2023-01-12T15:31:38.686Z,10.19
2023-01-12T15:34:12.068Z,9.79
2023-01-12T15:36:44.727Z,9.86
2023-01-12T15:39:17.404Z,9.83
2023-01-12T15:41:50.500Z,9.88
2023-01-12T15:44:23.170Z,9.59
2023-01-12T15:46:55.843Z,9.19
2023-01-12T15:49:28.455Z,9.63
2023-01-12T15:52:01.061Z,9.86
2023-01-12T15:54:33.700Z,9.25
2023-01-12T15:57:08.244Z,9.16
2023-01-12T15:59:41.287Z,8.97
2023-01-12T16:02:36.818Z,9.36
2023-01-12T16:05:11.256Z,9.33
2023-01-12T16:07:43.850Z,8.79
2023-01-12T16:10:17.725Z,8.86
2023-01-12T16:12:50.432Z,8.84
2023-01-12T16:15:25.148Z,8.88
2023-01-12T16:17:57.771Z,8.89
2023-01-12T16:20:30.409Z,9.04
2023-01-12T16:23:02.989Z,8.93
2023-01-12T16:25:36.951Z,8.81
2023-01-12T16:28:10.889Z,9.05
2023-01-12T16:30:47.173Z,8.97
2023-01-12T16:33:19.752Z,9.02
2023-01-12T16:35:55.248Z,9.03
2023-01-12T16:38:28.378Z,9.16
2023-01-12T16:41:13.278Z,9.03
2023-01-12T16:43:46.416Z,8.93
2023-01-12T16:46:18.997Z,9.02
2023-01-12T16:48:51.644Z,8.85
2023-01-12T16:51:24.263Z,8.98
2023-01-12T16:53:56.903Z,9.24
2023-01-12T16:56:29.529Z,9.01
2023-01-12T16:59:02.124Z,9.05
2023-01-12T17:01:35.121Z,8.99
2023-01-12T17:04:07.799Z,9.02
2023-01-12T17:06:40.780Z,9.20
2023-01-12T17:09:14.819Z,9.42
2023-01-12T17:11:50.034Z,9.79
2023-01-12T17:14:22.787Z,9.71
2023-01-12T17:16:58.007Z,9.74
2023-01-12T17:19:33.879Z,9.59
2023-01-12T17:22:07.659Z,9.30
2023-01-12T17:24:40.826Z,9.50
2023-01-12T17:27:13.521Z,9.07
2023-01-12T17:29:50.149Z,9.66
2023-01-12T17:32:22.944Z,9.45
2023-01-12T17:34:55.786Z,9.08
2023-01-12T17:37:28.368Z,9.71
2023-01-12T17:40:00.975Z,9.67
2023-01-12T17:42:33.598Z,9.63
2023-01-12T17:45:06.856Z,9.93
2023-01-12T17:47:39.450Z,9.65
2023-01-12T17:50:12.074Z,9.30
2023-01-12T17:52:44.696Z,8.94
2023-01-12T17:55:17.536Z,9.10
2023-01-12T17:57:50.169Z,9.04
2023-01-12T18:00:23.189Z,8.93
2023-01-12T18:02:55.826Z,9.11
2023-01-12T18:05:29.739Z,9.18
2023-01-12T18:08:02.386Z,8.89
2023-01-12T18:10:34.969Z,9.17
2023-01-12T18:13:07.699Z,8.89
2023-01-12T18:15:40.632Z,9.21
2023-01-12T18:18:13.266Z,9.01
2023-01-12T18:20:45.871Z,8.89
2023-01-12T18:23:18.645Z,9.03
2023-01-12T18:25:51.238Z,9.12
2023-01-12T18:28:23.831Z,9.10
2023-01-12T18:31:11.032Z,9.52
2023-01-12T18:33:44.533Z,9.57
2023-01-12T18:36:19.863Z,9.34
2023-01-12T18:38:53.689Z,9.40
2023-01-12T18:41:26.406Z,9.53
2023-01-12T18:43:59.455Z,9.39
2023-01-12T18:46:33.858Z,9.13
2023-01-12T18:49:06.442Z,9.07
2023-01-12T18:51:39.064Z,9.16
2023-01-12T18:54:11.721Z,9.03
2023-01-12T18:56:44.311Z,9.02
2023-01-12T18:59:17.268Z,9.13
2023-01-12T19:01:50.064Z,9.18
2023-01-12T19:04:22.773Z,9.10
2023-01-12T19:06:55.407Z,8.90
2023-01-12T19:09:28.069Z,9.02
2023-01-12T19:12:01.666Z,8.84
2023-01-12T19:14:34.561Z,9.03
2023-01-12T19:17:07.176Z,8.94
2023-01-12T19:19:42.255Z,8.87
2023-01-12T19:22:14.933Z,8.85
2023-01-12T19:24:47.557Z,9.14
2023-01-12T19:27:20.253Z,9.21
2023-01-12T19:29:54.859Z,9.85
2023-01-12T19:32:27.628Z,9.56
2023-01-12T19:35:10.206Z,9.40
2023-01-12T19:37:47.959Z,9.12
2023-01-12T19:40:20.597Z,9.01
2023-01-12T19:42:53.221Z,8.56
2023-01-12T19:45:25.963Z,8.89
2023-01-12T19:47:58.561Z,9.05
2023-01-12T19:50:31.263Z,8.87
2023-01-12T19:53:06.230Z,8.52
2023-01-12T19:55:41.918Z,8.53
2023-01-12T19:58:14.621Z,8.51
2023-01-12T20:00:48.507Z,8.53
2023-01-12T20:03:23.906Z,8.50
2023-01-12T20:05:56.506Z,8.82
2023-01-12T20:08:29.127Z,8.48
2023-01-12T20:11:05.167Z,8.41
2023-01-12T20:13:38.250Z,8.37
2023-01-12T20:16:10.977Z,8.38
2023-01-12T20:18:43.705Z,8.43
2023-01-12T20:21:16.425Z,8.70
2023-01-12T20:23:49.059Z,8.73
2023-01-12T20:26:21.702Z,8.89
2023-01-12T20:28:54.394Z,8.77
2023-01-12T20:31:27.625Z,8.77
2023-01-12T20:34:00.278Z,8.67
2023-01-12T20:36:33.428Z,8.74
2023-01-12T20:39:07.313Z,8.93
2023-01-12T20:41:41.621Z,8.71
2023-01-12T20:44:17.092Z,8.89
2023-01-12T20:46:49.837Z,8.79
2023-01-12T20:49:22.639Z,8.94
2023-01-12T20:51:58.653Z,8.82
2023-01-12T20:54:31.267Z,8.97
2023-01-12T20:57:03.963Z,8.84
2023-01-12T20:59:37.526Z,8.62
2023-01-12T21:02:21.183Z,8.53
2023-01-12T21:04:53.913Z,8.50
2023-01-12T21:07:26.509Z,8.61
2023-01-12T21:09:59.383Z,9.13
2023-01-12T21:12:32.040Z,8.80
2023-01-12T21:15:05.207Z,8.59
2023-01-12T21:17:37.857Z,8.73
2023-01-12T21:20:11.352Z,9.00
2023-01-12T21:22:43.976Z,8.72
2023-01-12T21:25:16.774Z,9.09
2023-01-12T21:27:49.396Z,9.33
2023-01-12T21:30:22.281Z,8.78
2023-01-12T21:32:54.890Z,8.85
2023-01-12T21:35:27.488Z,8.79
2023-01-12T21:38:00.274Z,8.65
2023-01-12T21:40:33.021Z,8.69
2023-01-12T21:43:05.604Z,8.68
2023-01-12T21:45:42.268Z,8.63
2023-01-12T21:48:17.488Z,8.58
2023-01-12T21:50:50.259Z,8.73
2023-01-12T21:53:22.836Z,8.77
2023-01-12T21:55:58.308Z,8.76
2023-01-12T21:58:34.241Z,8.59
2023-01-12T22:01:12.040Z,8.57
2023-01-12T22:03:44.827Z,8.59
2023-01-12T22:06:17.431Z,8.70
2023-01-12T22:08:50.034Z,8.68
2023-01-12T22:11:22.731Z,8.53
2023-01-12T22:13:55.348Z,8.56
2023-01-12T22:16:27.959Z,8.58
2023-01-12T22:19:00.707Z,8.45
2023-01-12T22:21:33.368Z,8.41
2023-01-12T22:24:06.677Z,8.48
2023-01-12T22:26:39.305Z,8.42
2023-01-12T22:29:11.903Z,8.55
2023-01-12T22:31:44.591Z,8.50
2023-01-12T22:34:17.229Z,8.75
2023-01-12T22:36:49.897Z,8.48
2023-01-12T22:39:22.492Z,8.26
2023-01-12T22:41:55.120Z,8.33
2023-01-12T22:44:27.742Z,8.34
2023-01-12T22:47:00.326Z,8.27
2023-01-12T22:49:32.930Z,8.41
2023-01-12T22:52:05.980Z,8.34
2023-01-12T22:54:38.534Z,8.59
2023-01-12T22:57:11.098Z,8.48
2023-01-12T22:59:43.701Z,8.68
2023-01-12T23:02:16.414Z,8.65
2023-01-12T23:04:49.074Z,8.55
2023-01-12T23:07:21.952Z,8.45
2023-01-12T23:09:54.578Z,8.65
2023-01-12T23:12:27.210Z,8.40
2023-01-12T23:14:59.823Z,8.63
2023-01-12T23:17:32.736Z,8.70
2023-01-12T23:20:06.005Z,8.94
2023-01-12T23:22:38.606Z,8.82
2023-01-12T23:25:11.237Z,8.78
2023-01-12T23:27:43.916Z,8.86
2023-01-12T23:30:16.723Z,8.77
2023-01-12T23:32:49.360Z,8.85
2023-01-12T23:35:22.127Z,8.76
2023-01-12T23:37:54.869Z,8.92
2023-01-12T23:40:27.805Z,9.13
2023-01-12T23:43:02.765Z,8.99
2023-01-12T23:45:35.413Z,8.82
2023-01-12T23:48:08.203Z,8.84
2023-01-12T23:50:40.820Z,8.79
2023-01-12T23:53:13.441Z,8.73
2023-01-12T23:55:46.054Z,8.84
2023-01-12T23:58:18.782Z,8.94
